sensor_id;sensor_type;location;lat;lon;timestamp;temperature;humidity
60717;DHT22;46566;52.700;6.192;2023-04-29T00:01:55;10.00;99.90
60717;DHT22;46566;52.700;6.192;2023-04-29T00:04:24;10.00;99.90
60717;DHT22;46566;52.700;6.192;2023-04-29T00:06:50;10.00;99.90
60717;DHT22;46566;52.700;6.192;2023-04-29T00:09:15;10.10;99.90
60717;DHT22;46566;52.700;6.192;2023-04-29T00:11:41;10.00;99.90
60717;DHT22;46566;52.700;6.192;2023-04-29T00:14:07;10.00;99.90
60717;DHT22;46566;52.700;6.192;2023-04-29T00:16:32;10.00;99.90
60717;DHT22;46566;52.700;6.192;2023-04-29T00:18:58;10.00;99.90
60717;DHT22;46566;52.700;6.192;2023-04-29T00:21:24;10.00;99.90
60717;DHT22;46566;52.700;6.192;2023-04-29T00:23:52;10.00;99.90
60717;DHT22;46566;52.700;6.192;2023-04-29T00:26:19;10.00;99.90
60717;DHT22;46566;52.700;6.192;2023-04-29T00:28:47;10.00;99.90
60717;DHT22;46566;52.700;6.192;2023-04-29T00:31:12;10.00;99.90
60717;DHT22;46566;52.700;6.192;2023-04-29T00:33:38;10.00;99.90
60717;DHT22;46566;52.700;6.192;2023-04-29T00:36:06;10.00;99.90
60717;DHT22;46566;52.700;6.192;2023-04-29T00:38:32;10.00;99.90
60717;DHT22;46566;52.700;6.192;2023-04-29T00:40:57;10.00;99.90
60717;DHT22;46566;52.700;6.192;2023-04-29T00:43:23;10.00;99.90
60717;DHT22;46566;52.700;6.192;2023-04-29T00:45:49;10.00;99.90
60717;DHT22;46566;52.700;6.192;2023-04-29T00:48:15;9.90;99.90
60717;DHT22;46566;52.700;6.192;2023-04-29T00:50:41;9.90;99.90
60717;DHT22;46566;52.700;6.192;2023-04-29T00:53:13;9.90;99.90
60717;DHT22;46566;52.700;6.192;2023-04-29T00:55:40;9.90;99.90
60717;DHT22;46566;52.700;6.192;2023-04-29T00:58:07;9.90;99.90
60717;DHT22;46566;52.700;6.192;2023-04-29T01:00:34;9.90;99.90
60717;DHT22;46566;52.700;6.192;2023-04-29T01:03:01;9.90;99.90
60717;DHT22;46566;52.700;6.192;2023-04-29T01:05:27;9.80;99.90
60717;DHT22;46566;52.700;6.192;2023-04-29T01:11:10;9.80;99.90
60717;DHT22;46566;52.700;6.192;2023-04-29T01:13:50;9.80;99.90
60717;DHT22;46566;52.700;6.192;2023-04-29T01:21:57;9.80;99.90
60717;DHT22;46566;52.700;6.192;2023-04-29T01:24:22;9.80;99.90
60717;DHT22;46566;52.700;6.192;2023-04-29T01:27:01;9.80;99.90
60717;DHT22;46566;52.700;6.192;2023-04-29T01:32:22;9.80;99.90
60717;DHT22;46566;52.700;6.192;2023-04-29T01:35:09;9.80;99.90
60717;DHT22;46566;52.700;6.192;2023-04-29T01:40:47;9.80;99.90
60717;DHT22;46566;52.700;6.192;2023-04-29T01:43:22;9.80;99.90
60717;DHT22;46566;52.700;6.192;2023-04-29T01:45:49;9.70;99.90
60717;DHT22;46566;52.700;6.192;2023-04-29T01:48:17;9.80;99.90
60717;DHT22;46566;52.700;6.192;2023-04-29T01:50:43;9.70;99.90
60717;DHT22;46566;52.700;6.192;2023-04-29T01:53:11;9.70;99.90
60717;DHT22;46566;52.700;6.192;2023-04-29T01:55:36;9.70;99.90
60717;DHT22;46566;52.700;6.192;2023-04-29T01:58:25;9.70;99.90
60717;DHT22;46566;52.700;6.192;2023-04-29T02:00:55;9.70;99.90
60717;DHT22;46566;52.700;6.192;2023-04-29T02:03:21;9.70;99.90
60717;DHT22;46566;52.700;6.192;2023-04-29T02:05:50;9.70;99.90
60717;DHT22;46566;52.700;6.192;2023-04-29T02:08:17;9.70;99.90
60717;DHT22;46566;52.700;6.192;2023-04-29T02:10:54;9.70;99.90
60717;DHT22;46566;52.700;6.192;2023-04-29T02:13:29;9.70;99.90
60717;DHT22;46566;52.700;6.192;2023-04-29T02:15:56;9.70;99.90
60717;DHT22;46566;52.700;6.192;2023-04-29T02:18:22;9.70;99.90
60717;DHT22;46566;52.700;6.192;2023-04-29T02:20:47;9.70;99.90
60717;DHT22;46566;52.700;6.192;2023-04-29T02:23:15;9.70;99.90
60717;DHT22;46566;52.700;6.192;2023-04-29T02:25:41;9.60;99.90
60717;DHT22;46566;52.700;6.192;2023-04-29T02:28:07;9.60;99.90
60717;DHT22;46566;52.700;6.192;2023-04-29T02:30:34;9.60;99.90
60717;DHT22;46566;52.700;6.192;2023-04-29T02:32:59;9.60;99.90
60717;DHT22;46566;52.700;6.192;2023-04-29T02:35:25;9.60;99.90
60717;DHT22;46566;52.700;6.192;2023-04-29T02:37:53;9.60;99.90
60717;DHT22;46566;52.700;6.192;2023-04-29T02:40:18;9.60;99.90
60717;DHT22;46566;52.700;6.192;2023-04-29T02:42:44;9.60;99.90
60717;DHT22;46566;52.700;6.192;2023-04-29T02:45:10;9.60;99.90
60717;DHT22;46566;52.700;6.192;2023-04-29T02:47:36;9.60;99.90
60717;DHT22;46566;52.700;6.192;2023-04-29T02:50:02;9.60;99.90
60717;DHT22;46566;52.700;6.192;2023-04-29T02:52:29;9.60;99.90
60717;DHT22;46566;52.700;6.192;2023-04-29T02:54:55;9.60;99.90
60717;DHT22;46566;52.700;6.192;2023-04-29T02:57:21;9.60;99.90
60717;DHT22;46566;52.700;6.192;2023-04-29T02:59:46;9.60;99.90
60717;DHT22;46566;52.700;6.192;2023-04-29T03:02:12;9.60;99.90
60717;DHT22;46566;52.700;6.192;2023-04-29T03:04:38;9.60;99.90
60717;DHT22;46566;52.700;6.192;2023-04-29T03:07:05;9.50;99.90
60717;DHT22;46566;52.700;6.192;2023-04-29T03:09:32;9.50;99.90
60717;DHT22;46566;52.700;6.192;2023-04-29T03:11:58;9.60;99.90
60717;DHT22;46566;52.700;6.192;2023-04-29T03:14:24;9.60;99.90
60717;DHT22;46566;52.700;6.192;2023-04-29T03:16:50;9.60;99.90
60717;DHT22;46566;52.700;6.192;2023-04-29T03:19:16;9.60;99.90
60717;DHT22;46566;52.700;6.192;2023-04-29T03:21:42;9.60;99.90
60717;DHT22;46566;52.700;6.192;2023-04-29T03:24:07;9.50;99.90
60717;DHT22;46566;52.700;6.192;2023-04-29T03:26:33;9.50;99.90
60717;DHT22;46566;52.700;6.192;2023-04-29T03:28:59;9.40;99.90
60717;DHT22;46566;52.700;6.192;2023-04-29T03:31:25;9.40;99.90
60717;DHT22;46566;52.700;6.192;2023-04-29T03:33:51;9.40;99.90
60717;DHT22;46566;52.700;6.192;2023-04-29T03:36:18;9.30;99.90
60717;DHT22;46566;52.700;6.192;2023-04-29T03:39:02;9.30;99.90
60717;DHT22;46566;52.700;6.192;2023-04-29T03:41:29;9.30;99.90
60717;DHT22;46566;52.700;6.192;2023-04-29T03:43:54;9.30;99.90
60717;DHT22;46566;52.700;6.192;2023-04-29T03:46:26;9.30;99.90
60717;DHT22;46566;52.700;6.192;2023-04-29T03:48:52;9.30;99.90
60717;DHT22;46566;52.700;6.192;2023-04-29T03:51:24;9.30;99.90
60717;DHT22;46566;52.700;6.192;2023-04-29T03:53:55;9.30;99.90
60717;DHT22;46566;52.700;6.192;2023-04-29T03:56:22;9.30;99.90
60717;DHT22;46566;52.700;6.192;2023-04-29T03:58:51;9.20;99.90
60717;DHT22;46566;52.700;6.192;2023-04-29T04:01:18;9.20;99.90
60717;DHT22;46566;52.700;6.192;2023-04-29T04:03:45;9.20;99.90
60717;DHT22;46566;52.700;6.192;2023-04-29T04:06:10;9.20;99.90
60717;DHT22;46566;52.700;6.192;2023-04-29T04:08:37;9.20;99.90
60717;DHT22;46566;52.700;6.192;2023-04-29T04:11:10;9.20;99.90
60717;DHT22;46566;52.700;6.192;2023-04-29T04:13:46;9.20;99.90
60717;DHT22;46566;52.700;6.192;2023-04-29T04:16:12;9.20;99.90
60717;DHT22;46566;52.700;6.192;2023-04-29T04:18:37;9.20;99.90
60717;DHT22;46566;52.700;6.192;2023-04-29T04:21:11;9.10;99.90
60717;DHT22;46566;52.700;6.192;2023-04-29T04:23:40;9.20;99.90
60717;DHT22;46566;52.700;6.192;2023-04-29T04:26:08;9.20;99.90
60717;DHT22;46566;52.700;6.192;2023-04-29T04:28:48;9.20;99.90
60717;DHT22;46566;52.700;6.192;2023-04-29T04:31:21;9.20;99.90
60717;DHT22;46566;52.700;6.192;2023-04-29T04:33:46;9.20;99.90
60717;DHT22;46566;52.700;6.192;2023-04-29T04:36:13;9.20;99.90
60717;DHT22;46566;52.700;6.192;2023-04-29T04:38:38;9.20;99.90
60717;DHT22;46566;52.700;6.192;2023-04-29T04:41:09;9.20;99.90
60717;DHT22;46566;52.700;6.192;2023-04-29T04:43:36;9.20;99.90
60717;DHT22;46566;52.700;6.192;2023-04-29T04:46:12;9.20;99.90
60717;DHT22;46566;52.700;6.192;2023-04-29T04:48:43;9.20;99.90
60717;DHT22;46566;52.700;6.192;2023-04-29T04:51:12;9.20;99.90
60717;DHT22;46566;52.700;6.192;2023-04-29T04:53:39;9.20;99.90
60717;DHT22;46566;52.700;6.192;2023-04-29T04:56:10;9.20;99.90
60717;DHT22;46566;52.700;6.192;2023-04-29T04:58:36;9.20;99.90
60717;DHT22;46566;52.700;6.192;2023-04-29T05:01:03;9.20;99.90
60717;DHT22;46566;52.700;6.192;2023-04-29T05:03:28;9.20;99.90
60717;DHT22;46566;52.700;6.192;2023-04-29T05:05:55;9.30;99.90
60717;DHT22;46566;52.700;6.192;2023-04-29T05:08:22;9.20;99.90
60717;DHT22;46566;52.700;6.192;2023-04-29T05:10:48;9.20;99.90
60717;DHT22;46566;52.700;6.192;2023-04-29T05:13:14;9.30;99.90
60717;DHT22;46566;52.700;6.192;2023-04-29T05:15:41;9.30;99.90
60717;DHT22;46566;52.700;6.192;2023-04-29T05:18:08;9.30;99.90
60717;DHT22;46566;52.700;6.192;2023-04-29T05:20:35;9.30;99.90
60717;DHT22;46566;52.700;6.192;2023-04-29T05:23:01;9.30;99.90
60717;DHT22;46566;52.700;6.192;2023-04-29T05:25:29;9.30;99.90
60717;DHT22;46566;52.700;6.192;2023-04-29T05:27:55;9.30;99.90
60717;DHT22;46566;52.700;6.192;2023-04-29T05:30:23;9.30;99.90
60717;DHT22;46566;52.700;6.192;2023-04-29T05:32:49;9.30;99.90
60717;DHT22;46566;52.700;6.192;2023-04-29T05:35:17;9.40;99.90
60717;DHT22;46566;52.700;6.192;2023-04-29T05:37:43;9.40;99.90
60717;DHT22;46566;52.700;6.192;2023-04-29T05:40:29;9.40;99.90
60717;DHT22;46566;52.700;6.192;2023-04-29T05:43:09;9.40;99.90
60717;DHT22;46566;52.700;6.192;2023-04-29T05:45:36;9.40;99.90
60717;DHT22;46566;52.700;6.192;2023-04-29T05:48:02;9.40;99.90
60717;DHT22;46566;52.700;6.192;2023-04-29T05:50:28;9.50;99.90
60717;DHT22;46566;52.700;6.192;2023-04-29T05:52:53;9.50;99.90
60717;DHT22;46566;52.700;6.192;2023-04-29T05:55:22;9.50;99.90
60717;DHT22;46566;52.700;6.192;2023-04-29T05:57:48;9.50;99.90
60717;DHT22;46566;52.700;6.192;2023-04-29T06:00:13;9.50;99.90
60717;DHT22;46566;52.700;6.192;2023-04-29T06:02:39;9.60;99.90
60717;DHT22;46566;52.700;6.192;2023-04-29T06:05:08;9.60;99.90
60717;DHT22;46566;52.700;6.192;2023-04-29T06:07:44;9.60;99.90
60717;DHT22;46566;52.700;6.192;2023-04-29T06:10:28;9.60;99.90
60717;DHT22;46566;52.700;6.192;2023-04-29T06:12:54;9.70;99.90
60717;DHT22;46566;52.700;6.192;2023-04-29T06:15:20;9.70;99.90
60717;DHT22;46566;52.700;6.192;2023-04-29T06:17:46;9.80;99.90
60717;DHT22;46566;52.700;6.192;2023-04-29T06:20:12;9.80;99.90
60717;DHT22;46566;52.700;6.192;2023-04-29T06:22:38;9.90;99.90
60717;DHT22;46566;52.700;6.192;2023-04-29T06:25:03;9.90;99.90
60717;DHT22;46566;52.700;6.192;2023-04-29T06:27:46;9.90;99.90
60717;DHT22;46566;52.700;6.192;2023-04-29T06:30:14;10.00;99.90
60717;DHT22;46566;52.700;6.192;2023-04-29T06:32:40;10.00;99.90
60717;DHT22;46566;52.700;6.192;2023-04-29T06:35:07;10.10;99.90
60717;DHT22;46566;52.700;6.192;2023-04-29T06:37:58;10.10;99.90
60717;DHT22;46566;52.700;6.192;2023-04-29T06:40:56;10.20;99.90
60717;DHT22;46566;52.700;6.192;2023-04-29T06:43:57;10.20;99.90
60717;DHT22;46566;52.700;6.192;2023-04-29T06:46:35;10.30;99.90
60717;DHT22;46566;52.700;6.192;2023-04-29T06:49:06;10.30;99.90
60717;DHT22;46566;52.700;6.192;2023-04-29T06:51:31;10.30;99.90
60717;DHT22;46566;52.700;6.192;2023-04-29T06:53:58;10.40;99.90
60717;DHT22;46566;52.700;6.192;2023-04-29T06:56:23;10.40;99.90
60717;DHT22;46566;52.700;6.192;2023-04-29T06:58:50;10.40;99.90
60717;DHT22;46566;52.700;6.192;2023-04-29T07:01:15;10.50;99.90
60717;DHT22;46566;52.700;6.192;2023-04-29T07:03:42;10.50;99.90
60717;DHT22;46566;52.700;6.192;2023-04-29T07:06:08;10.50;99.90
60717;DHT22;46566;52.700;6.192;2023-04-29T07:08:33;10.60;99.90
60717;DHT22;46566;52.700;6.192;2023-04-29T07:10:59;10.60;99.90
60717;DHT22;46566;52.700;6.192;2023-04-29T07:13:25;10.70;99.90
60717;DHT22;46566;52.700;6.192;2023-04-29T07:15:51;10.80;99.90
60717;DHT22;46566;52.700;6.192;2023-04-29T07:18:16;10.80;99.90
60717;DHT22;46566;52.700;6.192;2023-04-29T07:20:42;10.90;99.90
60717;DHT22;46566;52.700;6.192;2023-04-29T07:23:09;10.90;99.90
60717;DHT22;46566;52.700;6.192;2023-04-29T07:25:34;11.10;99.90
60717;DHT22;46566;52.700;6.192;2023-04-29T07:28:01;11.10;99.90
60717;DHT22;46566;52.700;6.192;2023-04-29T07:30:27;11.10;99.90
60717;DHT22;46566;52.700;6.192;2023-04-29T07:32:53;11.10;99.90
60717;DHT22;46566;52.700;6.192;2023-04-29T07:35:19;11.10;99.90
60717;DHT22;46566;52.700;6.192;2023-04-29T07:37:45;11.10;99.90
60717;DHT22;46566;52.700;6.192;2023-04-29T07:40:11;11.10;99.90
60717;DHT22;46566;52.700;6.192;2023-04-29T07:42:37;11.20;99.90
60717;DHT22;46566;52.700;6.192;2023-04-29T07:45:05;11.20;99.90
60717;DHT22;46566;52.700;6.192;2023-04-29T07:47:32;11.30;99.90
60717;DHT22;46566;52.700;6.192;2023-04-29T07:49:57;11.30;99.90
60717;DHT22;46566;52.700;6.192;2023-04-29T07:52:23;11.40;99.90
60717;DHT22;46566;52.700;6.192;2023-04-29T07:54:49;11.50;99.90
60717;DHT22;46566;52.700;6.192;2023-04-29T07:57:14;11.70;99.90
60717;DHT22;46566;52.700;6.192;2023-04-29T07:59:40;12.50;99.90
60717;DHT22;46566;52.700;6.192;2023-04-29T08:02:07;13.60;99.90
60717;DHT22;46566;52.700;6.192;2023-04-29T08:04:32;14.60;99.90
60717;DHT22;46566;52.700;6.192;2023-04-29T08:33:51;15.70;99.90
60717;DHT22;46566;52.700;6.192;2023-04-29T08:36:17;20.80;81.10
60717;DHT22;46566;52.700;6.192;2023-04-29T08:38:42;21.00;80.70
60717;DHT22;46566;52.700;6.192;2023-04-29T08:41:08;20.90;71.60
60717;DHT22;46566;52.700;6.192;2023-04-29T15:24:20;19.00;65.00
60717;DHT22;46566;52.700;6.192;2023-04-29T15:26:45;18.90;62.30
60717;DHT22;46566;52.700;6.192;2023-04-29T15:29:11;18.70;61.80
60717;DHT22;46566;52.700;6.192;2023-04-29T15:32:02;18.60;62.20
60717;DHT22;46566;52.700;6.192;2023-04-29T15:34:28;18.60;63.10
60717;DHT22;46566;52.700;6.192;2023-04-29T15:36:54;18.50;62.40
60717;DHT22;46566;52.700;6.192;2023-04-29T15:45:05;18.10;64.20
60717;DHT22;46566;52.700;6.192;2023-04-29T15:47:51;17.90;63.60
60717;DHT22;46566;52.700;6.192;2023-04-29T15:50:17;17.90;63.50
60717;DHT22;46566;52.700;6.192;2023-04-29T15:52:43;17.80;62.70
60717;DHT22;46566;52.700;6.192;2023-04-29T17:03:29;17.60;63.50
60717;DHT22;46566;52.700;6.192;2023-04-29T17:18:31;15.90;99.90
60717;DHT22;46566;52.700;6.192;2023-04-29T17:21:12;15.70;99.90
60717;DHT22;46566;52.700;6.192;2023-04-29T17:23:38;15.70;99.90
60717;DHT22;46566;52.700;6.192;2023-04-29T17:26:04;15.70;99.90
60717;DHT22;46566;52.700;6.192;2023-04-29T17:28:31;15.60;99.90
60717;DHT22;46566;52.700;6.192;2023-04-29T17:30:56;15.60;99.90
60717;DHT22;46566;52.700;6.192;2023-04-29T17:33:43;15.50;99.90
60717;DHT22;46566;52.700;6.192;2023-04-29T17:41:27;15.40;99.90
60717;DHT22;46566;52.700;6.192;2023-04-29T17:43:53;15.30;99.90
60717;DHT22;46566;52.700;6.192;2023-04-29T17:46:19;15.20;99.90
60717;DHT22;46566;52.700;6.192;2023-04-29T17:48:44;15.10;99.90
60717;DHT22;46566;52.700;6.192;2023-04-29T17:51:10;15.00;99.90
60717;DHT22;46566;52.700;6.192;2023-04-29T17:54:00;15.00;99.90
60717;DHT22;46566;52.700;6.192;2023-04-29T17:56:26;14.90;99.90
60717;DHT22;46566;52.700;6.192;2023-04-29T17:58:53;14.80;99.90
60717;DHT22;46566;52.700;6.192;2023-04-29T18:01:19;14.90;99.90
60717;DHT22;46566;52.700;6.192;2023-04-29T18:04:09;14.80;99.90
60717;DHT22;46566;52.700;6.192;2023-04-29T18:06:36;14.80;99.90
60717;DHT22;46566;52.700;6.192;2023-04-29T18:09:02;14.70;99.90
60717;DHT22;46566;52.700;6.192;2023-04-29T18:11:29;14.60;99.90
60717;DHT22;46566;52.700;6.192;2023-04-29T18:14:21;14.40;99.90
60717;DHT22;46566;52.700;6.192;2023-04-29T18:16:46;14.40;99.90
60717;DHT22;46566;52.700;6.192;2023-04-29T18:19:12;14.30;99.90
60717;DHT22;46566;52.700;6.192;2023-04-29T18:21:38;14.10;99.90
60717;DHT22;46566;52.700;6.192;2023-04-29T18:24:30;14.10;99.90
60717;DHT22;46566;52.700;6.192;2023-04-29T18:26:56;13.90;99.90
60717;DHT22;46566;52.700;6.192;2023-04-29T18:32:08;13.90;99.90
60717;DHT22;46566;52.700;6.192;2023-04-29T18:34:33;13.60;99.90
60717;DHT22;46566;52.700;6.192;2023-04-29T18:36:59;13.60;99.90
60717;DHT22;46566;52.700;6.192;2023-04-29T18:39:26;13.60;99.90
60717;DHT22;46566;52.700;6.192;2023-04-29T18:41:51;13.60;99.90
60717;DHT22;46566;52.700;6.192;2023-04-29T18:44:42;13.50;99.90
60717;DHT22;46566;52.700;6.192;2023-04-29T18:47:08;13.50;99.90
60717;DHT22;46566;52.700;6.192;2023-04-29T18:49:33;13.40;99.90
60717;DHT22;46566;52.700;6.192;2023-04-29T18:51:59;13.30;99.90
60717;DHT22;46566;52.700;6.192;2023-04-29T18:54:25;13.20;99.90
60717;DHT22;46566;52.700;6.192;2023-04-29T18:56:51;13.10;99.90
60717;DHT22;46566;52.700;6.192;2023-04-29T18:59:17;13.00;99.90
60717;DHT22;46566;52.700;6.192;2023-04-29T19:01:46;12.90;99.90
60717;DHT22;46566;52.700;6.192;2023-04-29T19:04:12;12.90;99.90
60717;DHT22;46566;52.700;6.192;2023-04-29T19:06:38;12.80;99.90
60717;DHT22;46566;52.700;6.192;2023-04-29T19:09:04;12.80;99.90
60717;DHT22;46566;52.700;6.192;2023-04-29T19:11:30;12.70;99.90
60717;DHT22;46566;52.700;6.192;2023-04-29T19:13:56;12.70;99.90
60717;DHT22;46566;52.700;6.192;2023-04-29T19:16:22;12.70;99.90
60717;DHT22;46566;52.700;6.192;2023-04-29T19:18:49;12.60;99.90
60717;DHT22;46566;52.700;6.192;2023-04-29T19:21:16;12.60;99.90
60717;DHT22;46566;52.700;6.192;2023-04-29T19:23:42;12.60;99.90
60717;DHT22;46566;52.700;6.192;2023-04-29T19:26:09;12.50;99.90
60717;DHT22;46566;52.700;6.192;2023-04-29T19:28:35;12.50;99.90
60717;DHT22;46566;52.700;6.192;2023-04-29T19:31:02;12.50;99.90
60717;DHT22;46566;52.700;6.192;2023-04-29T19:33:28;12.40;99.90
60717;DHT22;46566;52.700;6.192;2023-04-29T19:35:53;12.30;99.90
60717;DHT22;46566;52.700;6.192;2023-04-29T19:38:19;12.30;99.90
60717;DHT22;46566;52.700;6.192;2023-04-29T19:40:45;12.30;99.90
60717;DHT22;46566;52.700;6.192;2023-04-29T19:43:11;12.30;99.90
60717;DHT22;46566;52.700;6.192;2023-04-29T19:45:38;12.30;99.90
60717;DHT22;46566;52.700;6.192;2023-04-29T19:48:04;12.40;99.90
60717;DHT22;46566;52.700;6.192;2023-04-29T19:50:30;12.40;99.90
60717;DHT22;46566;52.700;6.192;2023-04-29T19:52:57;12.40;99.90
60717;DHT22;46566;52.700;6.192;2023-04-29T19:55:22;12.40;99.90
60717;DHT22;46566;52.700;6.192;2023-04-29T19:57:48;12.50;99.90
60717;DHT22;46566;52.700;6.192;2023-04-29T20:00:15;12.50;99.90
60717;DHT22;46566;52.700;6.192;2023-04-29T20:02:42;12.40;99.90
60717;DHT22;46566;52.700;6.192;2023-04-29T20:05:09;12.40;99.90
60717;DHT22;46566;52.700;6.192;2023-04-29T20:07:38;12.40;99.90
60717;DHT22;46566;52.700;6.192;2023-04-29T20:10:05;12.40;99.90
60717;DHT22;46566;52.700;6.192;2023-04-29T20:12:31;12.30;99.90
60717;DHT22;46566;52.700;6.192;2023-04-29T20:14:58;12.30;99.90
60717;DHT22;46566;52.700;6.192;2023-04-29T20:17:26;12.20;99.90
60717;DHT22;46566;52.700;6.192;2023-04-29T20:19:55;12.10;99.90
60717;DHT22;46566;52.700;6.192;2023-04-29T20:22:21;12.10;99.90
60717;DHT22;46566;52.700;6.192;2023-04-29T20:24:47;12.10;99.90
60717;DHT22;46566;52.700;6.192;2023-04-29T20:27:13;12.10;99.90
60717;DHT22;46566;52.700;6.192;2023-04-29T20:29:38;12.10;99.90
60717;DHT22;46566;52.700;6.192;2023-04-29T20:32:04;12.10;99.90
60717;DHT22;46566;52.700;6.192;2023-04-29T20:34:30;12.20;99.90
60717;DHT22;46566;52.700;6.192;2023-04-29T20:36:59;12.20;99.90
60717;DHT22;46566;52.700;6.192;2023-04-29T20:39:25;12.20;99.90
60717;DHT22;46566;52.700;6.192;2023-04-29T20:41:51;12.10;99.90
60717;DHT22;46566;52.700;6.192;2023-04-29T20:44:21;12.10;99.90
60717;DHT22;46566;52.700;6.192;2023-04-29T20:46:50;12.10;99.90
60717;DHT22;46566;52.700;6.192;2023-04-29T20:49:18;12.10;99.90
60717;DHT22;46566;52.700;6.192;2023-04-29T20:51:43;12.00;99.90
60717;DHT22;46566;52.700;6.192;2023-04-29T20:54:09;12.00;99.90
60717;DHT22;46566;52.700;6.192;2023-04-29T20:56:35;12.00;99.90
60717;DHT22;46566;52.700;6.192;2023-04-29T20:59:01;12.10;99.90
60717;DHT22;46566;52.700;6.192;2023-04-29T21:01:27;12.10;99.90
60717;DHT22;46566;52.700;6.192;2023-04-29T21:03:53;12.10;99.90
60717;DHT22;46566;52.700;6.192;2023-04-29T21:06:19;12.10;99.90
60717;DHT22;46566;52.700;6.192;2023-04-29T21:08:45;12.10;99.90
60717;DHT22;46566;52.700;6.192;2023-04-29T21:11:10;12.00;99.90
60717;DHT22;46566;52.700;6.192;2023-04-29T21:13:39;12.00;99.90
60717;DHT22;46566;52.700;6.192;2023-04-29T21:16:04;12.00;99.90
60717;DHT22;46566;52.700;6.192;2023-04-29T21:18:30;12.00;99.90
60717;DHT22;46566;52.700;6.192;2023-04-29T21:20:56;12.00;99.90
60717;DHT22;46566;52.700;6.192;2023-04-29T21:23:21;12.00;99.90
60717;DHT22;46566;52.700;6.192;2023-04-29T21:25:48;12.00;99.90
60717;DHT22;46566;52.700;6.192;2023-04-29T21:28:13;12.00;99.90
60717;DHT22;46566;52.700;6.192;2023-04-29T21:30:42;11.90;99.90
60717;DHT22;46566;52.700;6.192;2023-04-29T21:33:08;11.90;99.90
60717;DHT22;46566;52.700;6.192;2023-04-29T21:35:34;12.00;99.90
60717;DHT22;46566;52.700;6.192;2023-04-29T21:38:00;12.00;99.90
60717;DHT22;46566;52.700;6.192;2023-04-29T21:40:25;11.90;99.90
60717;DHT22;46566;52.700;6.192;2023-04-29T21:42:51;11.90;99.90
60717;DHT22;46566;52.700;6.192;2023-04-29T21:45:19;11.90;99.90
60717;DHT22;46566;52.700;6.192;2023-04-29T21:47:46;11.90;99.90
60717;DHT22;46566;52.700;6.192;2023-04-29T21:50:11;11.90;99.90
60717;DHT22;46566;52.700;6.192;2023-04-29T21:52:37;11.80;99.90
60717;DHT22;46566;52.700;6.192;2023-04-29T21:55:07;11.80;99.90
60717;DHT22;46566;52.700;6.192;2023-04-29T21:57:56;11.80;99.90
60717;DHT22;46566;52.700;6.192;2023-04-29T22:00:21;11.70;99.90
60717;DHT22;46566;52.700;6.192;2023-04-29T22:03:08;11.70;99.90
60717;DHT22;46566;52.700;6.192;2023-04-29T22:05:35;11.60;99.90
60717;DHT22;46566;52.700;6.192;2023-04-29T22:08:02;11.60;99.90
60717;DHT22;46566;52.700;6.192;2023-04-29T22:10:28;11.50;99.90
60717;DHT22;46566;52.700;6.192;2023-04-29T22:12:55;11.50;99.90
60717;DHT22;46566;52.700;6.192;2023-04-29T22:15:21;11.60;99.90
60717;DHT22;46566;52.700;6.192;2023-04-29T22:17:47;11.50;99.90
60717;DHT22;46566;52.700;6.192;2023-04-29T22:20:15;11.50;99.90
60717;DHT22;46566;52.700;6.192;2023-04-29T22:22:41;11.40;99.90
60717;DHT22;46566;52.700;6.192;2023-04-29T22:25:07;11.40;99.90
60717;DHT22;46566;52.700;6.192;2023-04-29T22:27:33;11.40;99.90
60717;DHT22;46566;52.700;6.192;2023-04-29T22:29:59;11.40;99.90
60717;DHT22;46566;52.700;6.192;2023-04-29T22:32:25;11.40;99.90
60717;DHT22;46566;52.700;6.192;2023-04-29T22:34:51;11.30;99.90
60717;DHT22;46566;52.700;6.192;2023-04-29T22:37:17;11.30;99.90
60717;DHT22;46566;52.700;6.192;2023-04-29T22:39:43;11.30;99.90
60717;DHT22;46566;52.700;6.192;2023-04-29T22:42:09;11.30;99.90
60717;DHT22;46566;52.700;6.192;2023-04-29T22:44:34;11.20;99.90
60717;DHT22;46566;52.700;6.192;2023-04-29T22:47:01;11.20;99.90
60717;DHT22;46566;52.700;6.192;2023-04-29T22:49:26;11.20;99.90
60717;DHT22;46566;52.700;6.192;2023-04-29T22:51:52;11.20;99.90
60717;DHT22;46566;52.700;6.192;2023-04-29T22:54:18;11.20;99.90
60717;DHT22;46566;52.700;6.192;2023-04-29T22:56:44;11.20;99.90
60717;DHT22;46566;52.700;6.192;2023-04-29T22:59:09;11.20;99.90
60717;DHT22;46566;52.700;6.192;2023-04-29T23:01:35;11.20;99.90
60717;DHT22;46566;52.700;6.192;2023-04-29T23:04:01;11.30;99.90
60717;DHT22;46566;52.700;6.192;2023-04-29T23:06:27;11.30;99.90
60717;DHT22;46566;52.700;6.192;2023-04-29T23:08:53;11.20;99.90
60717;DHT22;46566;52.700;6.192;2023-04-29T23:11:20;11.20;99.90
60717;DHT22;46566;52.700;6.192;2023-04-29T23:13:46;11.20;99.90
60717;DHT22;46566;52.700;6.192;2023-04-29T23:16:14;11.10;99.90
60717;DHT22;46566;52.700;6.192;2023-04-29T23:18:45;11.10;99.90
60717;DHT22;46566;52.700;6.192;2023-04-29T23:21:11;11.10;99.90
60717;DHT22;46566;52.700;6.192;2023-04-29T23:23:37;11.10;99.90
60717;DHT22;46566;52.700;6.192;2023-04-29T23:26:02;11.00;99.90
60717;DHT22;46566;52.700;6.192;2023-04-29T23:28:28;11.00;99.90
60717;DHT22;46566;52.700;6.192;2023-04-29T23:30:54;11.00;99.90
60717;DHT22;46566;52.700;6.192;2023-04-29T23:33:19;11.10;99.90
60717;DHT22;46566;52.700;6.192;2023-04-29T23:35:52;11.00;99.90
60717;DHT22;46566;52.700;6.192;2023-04-29T23:38:18;11.00;99.90
60717;DHT22;46566;52.700;6.192;2023-04-29T23:40:45;11.00;99.90
60717;DHT22;46566;52.700;6.192;2023-04-29T23:43:11;11.00;99.90
60717;DHT22;46566;52.700;6.192;2023-04-29T23:45:37;10.90;99.90
60717;DHT22;46566;52.700;6.192;2023-04-29T23:48:03;10.90;99.90
60717;DHT22;46566;52.700;6.192;2023-04-29T23:50:28;10.90;99.90
60717;DHT22;46566;52.700;6.192;2023-04-29T23:52:54;10.90;99.90
60717;DHT22;46566;52.700;6.192;2023-04-29T23:55:20;10.80;99.90
60717;DHT22;46566;52.700;6.192;2023-04-29T23:57:46;10.80;99.90
